Antonio Joao, Brazil
Current Conditions -  °F | °C
As of 5:00 PM on Monday 24 Nov 2014 (Local Time) from SBCG Reporting Station
Scattered Clouds Scattered Clouds  
Wind Chill: 86°   Ceiling: Unl
Heat Index: 89°   Visibility: 6mi
Dew Point: 68°   Wind: 12mph
Humidity: 55%   Direction: 290°WNW
Pressure: 29.8"   Gusts: NA
Location:  22.19°S, 55.95°W
Report Text: SBCG 242000Z 29010KT 9999 SCT040 FEW050TCU 30/20 Q1009
Loading
Personal Weather Stations






























Interactive Weather Map New forecast layout! Learn more

10-Day Weather Forecast

Advertisements
Track Severe Weather on mobile